sensor_id;sensor_type;location;lat;lon;timestamp;pressure;altitude;pressure_sealevel;temperature;humidity
39793;BME280;26080;42.264;24.536;2023-04-16T00:01:47;98838.78;;;9.90;100.00
39793;BME280;26080;42.264;24.536;2023-04-16T00:04:13;98840.66;;;9.88;100.00
39793;BME280;26080;42.264;24.536;2023-04-16T00:06:38;98837.38;;;10.00;100.00
39793;BME280;26080;42.264;24.536;2023-04-16T00:09:03;98841.13;;;10.12;100.00
39793;BME280;26080;42.264;24.536;2023-04-16T00:11:29;98836.13;;;10.07;100.00
39793;BME280;26080;42.264;24.536;2023-04-16T00:13:54;98833.69;;;10.04;100.00
39793;BME280;26080;42.264;24.536;2023-04-16T00:16:20;98837.97;;;9.89;100.00
39793;BME280;26080;42.264;24.536;2023-04-16T00:18:45;98836.66;;;9.80;100.00
39793;BME280;26080;42.264;24.536;2023-04-16T00:21:11;98839.00;;;9.85;100.00
39793;BME280;26080;42.264;24.536;2023-04-16T00:23:36;98847.28;;;9.77;100.00
39793;BME280;26080;42.264;24.536;2023-04-16T00:26:02;98822.72;;;9.45;100.00
39793;BME280;26080;42.264;24.536;2023-04-16T00:28:28;98849.59;;;9.49;100.00
39793;BME280;26080;42.264;24.536;2023-04-16T00:30:54;98854.25;;;9.42;100.00
39793;BME280;26080;42.264;24.536;2023-04-16T00:33:19;98860.16;;;9.29;100.00
39793;BME280;26080;42.264;24.536;2023-04-16T00:35:46;98863.88;;;9.25;100.00
39793;BME280;26080;42.264;24.536;2023-04-16T00:38:12;98864.88;;;9.22;100.00
39793;BME280;26080;42.264;24.536;2023-04-16T00:40:37;98860.69;;;9.18;100.00
39793;BME280;26080;42.264;24.536;2023-04-16T00:43:03;98867.00;;;9.14;100.00
39793;BME280;26080;42.264;24.536;2023-04-16T00:45:28;98864.75;;;9.06;100.00
39793;BME280;26080;42.264;24.536;2023-04-16T00:47:55;98865.03;;;9.00;100.00
39793;BME280;26080;42.264;24.536;2023-04-16T00:50:20;98861.66;;;8.98;100.00
39793;BME280;26080;42.264;24.536;2023-04-16T00:52:47;98865.28;;;8.96;100.00
39793;BME280;26080;42.264;24.536;2023-04-16T00:55:12;98868.16;;;8.89;100.00
39793;BME280;26080;42.264;24.536;2023-04-16T00:57:39;98861.97;;;8.92;100.00
39793;BME280;26080;42.264;24.536;2023-04-16T01:00:05;98845.19;;;8.79;100.00
39793;BME280;26080;42.264;24.536;2023-04-16T01:02:32;98858.81;;;9.03;100.00
39793;BME280;26080;42.264;24.536;2023-04-16T01:04:59;98854.94;;;9.11;100.00
39793;BME280;26080;42.264;24.536;2023-04-16T01:07:25;98856.19;;;9.03;100.00
39793;BME280;26080;42.264;24.536;2023-04-16T01:09:50;98839.00;;;8.99;100.00
39793;BME280;26080;42.264;24.536;2023-04-16T01:12:16;98857.38;;;9.14;100.00
39793;BME280;26080;42.264;24.536;2023-04-16T01:14:41;98856.44;;;8.98;100.00
39793;BME280;26080;42.264;24.536;2023-04-16T01:17:06;98851.22;;;8.98;100.00
39793;BME280;26080;42.264;24.536;2023-04-16T01:19:32;98856.50;;;8.97;100.00
39793;BME280;26080;42.264;24.536;2023-04-16T01:22:01;98855.81;;;8.93;100.00
39793;BME280;26080;42.264;24.536;2023-04-16T01:24:27;98836.44;;;8.80;100.00
39793;BME280;26080;42.264;24.536;2023-04-16T01:26:52;98847.53;;;9.02;100.00
39793;BME280;26080;42.264;24.536;2023-04-16T01:29:17;98847.56;;;9.19;100.00
39793;BME280;26080;42.264;24.536;2023-04-16T01:31:43;98824.66;;;9.07;100.00
39793;BME280;26080;42.264;24.536;2023-04-16T01:34:10;98819.56;;;9.04;100.00
39793;BME280;26080;42.264;24.536;2023-04-16T01:36:36;98845.09;;;9.16;100.00
39793;BME280;26080;42.264;24.536;2023-04-16T01:39:01;98845.00;;;9.18;100.00
39793;BME280;26080;42.264;24.536;2023-04-16T01:41:27;98846.00;;;9.15;100.00
39793;BME280;26080;42.264;24.536;2023-04-16T01:43:52;98840.09;;;9.12;100.00
39793;BME280;26080;42.264;24.536;2023-04-16T01:46:26;98846.00;;;9.15;100.00
39793;BME280;26080;42.264;24.536;2023-04-16T01:48:52;98822.47;;;8.98;100.00
39793;BME280;26080;42.264;24.536;2023-04-16T01:51:19;98801.91;;;8.92;100.00
39793;BME280;26080;42.264;24.536;2023-04-16T01:53:45;98831.09;;;9.17;100.00
39793;BME280;26080;42.264;24.536;2023-04-16T01:56:10;98836.19;;;9.20;100.00
39793;BME280;26080;42.264;24.536;2023-04-16T01:58:35;98832.09;;;9.15;100.00
39793;BME280;26080;42.264;24.536;2023-04-16T02:01:01;98835.22;;;9.04;100.00
39793;BME280;26080;42.264;24.536;2023-04-16T02:03:26;98838.63;;;9.06;100.00
39793;BME280;26080;42.264;24.536;2023-04-16T02:05:52;98842.44;;;8.99;100.00
39793;BME280;26080;42.264;24.536;2023-04-16T02:08:17;98839.06;;;8.97;100.00
39793;BME280;26080;42.264;24.536;2023-04-16T02:10:48;98831.94;;;9.18;100.00
39793;BME280;26080;42.264;24.536;2023-04-16T02:13:14;98830.81;;;9.24;100.00
39793;BME280;26080;42.264;24.536;2023-04-16T02:15:47;98830.25;;;9.17;100.00
39793;BME280;26080;42.264;24.536;2023-04-16T02:18:13;98831.72;;;9.05;100.00
39793;BME280;26080;42.264;24.536;2023-04-16T02:20:40;98831.84;;;9.02;100.00
39793;BME280;26080;42.264;24.536;2023-04-16T02:23:05;98833.34;;;8.89;100.00
39793;BME280;26080;42.264;24.536;2023-04-16T02:25:31;98827.94;;;8.75;100.00
39793;BME280;26080;42.264;24.536;2023-04-16T02:27:57;98824.03;;;8.66;100.00
39793;BME280;26080;42.264;24.536;2023-04-16T02:30:22;98830.16;;;8.65;100.00
39793;BME280;26080;42.264;24.536;2023-04-16T02:32:48;98807.50;;;8.47;100.00
39793;BME280;26080;42.264;24.536;2023-04-16T02:35:14;98815.41;;;8.45;100.00
39793;BME280;26080;42.264;24.536;2023-04-16T02:37:39;98844.13;;;8.64;100.00
39793;BME280;26080;42.264;24.536;2023-04-16T02:40:05;98838.84;;;8.66;100.00
39793;BME280;26080;42.264;24.536;2023-04-16T02:42:31;98843.06;;;8.68;100.00
39793;BME280;26080;42.264;24.536;2023-04-16T02:44:56;98838.84;;;8.66;100.00
39793;BME280;26080;42.264;24.536;2023-04-16T02:47:22;98842.28;;;8.66;100.00
39793;BME280;26080;42.264;24.536;2023-04-16T02:49:47;98850.53;;;8.57;100.00
39793;BME280;26080;42.264;24.536;2023-04-16T02:52:12;98844.41;;;8.58;100.00
39793;BME280;26080;42.264;24.536;2023-04-16T02:54:38;98843.28;;;8.64;100.00
39793;BME280;26080;42.264;24.536;2023-04-16T02:57:03;98838.13;;;8.62;100.00
39793;BME280;26080;42.264;24.536;2023-04-16T02:59:30;98838.69;;;8.69;100.00
39793;BME280;26080;42.264;24.536;2023-04-16T03:01:55;98844.88;;;8.85;100.00
39793;BME280;26080;42.264;24.536;2023-04-16T03:04:21;98840.06;;;8.76;100.00
39793;BME280;26080;42.264;24.536;2023-04-16T03:06:46;98848.56;;;8.81;100.00
39793;BME280;26080;42.264;24.536;2023-04-16T03:09:12;98841.16;;;8.72;100.00
39793;BME280;26080;42.264;24.536;2023-04-16T03:11:37;98837.84;;;8.68;100.00
39793;BME280;26080;42.264;24.536;2023-04-16T03:14:02;98846.78;;;8.63;100.00
39793;BME280;26080;42.264;24.536;2023-04-16T03:16:28;98849.28;;;8.66;100.00
39793;BME280;26080;42.264;24.536;2023-04-16T03:18:53;98850.25;;;8.63;100.00
39793;BME280;26080;42.264;24.536;2023-04-16T03:21:19;98848.00;;;8.55;100.00
39793;BME280;26080;42.264;24.536;2023-04-16T03:23:44;98849.34;;;8.45;100.00
39793;BME280;26080;42.264;24.536;2023-04-16T03:26:10;98844.41;;;8.39;100.00
39793;BME280;26080;42.264;24.536;2023-04-16T03:28:35;98854.31;;;8.31;100.00
39793;BME280;26080;42.264;24.536;2023-04-16T03:31:00;98849.78;;;8.16;100.00
39793;BME280;26080;42.264;24.536;2023-04-16T03:33:26;98856.97;;;8.11;100.00
39793;BME280;26080;42.264;24.536;2023-04-16T03:35:58;98820.25;;;7.76;100.00
39793;BME280;26080;42.264;24.536;2023-04-16T03:38:23;98855.56;;;7.83;100.00
39793;BME280;26080;42.264;24.536;2023-04-16T03:40:50;98856.72;;;7.76;100.00
39793;BME280;26080;42.264;24.536;2023-04-16T03:43:16;98841.88;;;7.58;100.00
39793;BME280;26080;42.264;24.536;2023-04-16T03:45:45;98859.78;;;7.65;100.00
39793;BME280;26080;42.264;24.536;2023-04-16T03:48:11;98850.72;;;7.54;100.00
39793;BME280;26080;42.264;24.536;2023-04-16T03:50:36;98869.03;;;7.52;100.00
39793;BME280;26080;42.264;24.536;2023-04-16T03:53:02;98869.03;;;7.52;100.00
39793;BME280;26080;42.264;24.536;2023-04-16T03:55:27;98864.66;;;7.53;100.00
39793;BME280;26080;42.264;24.536;2023-04-16T03:57:53;98866.38;;;7.54;100.00
39793;BME280;26080;42.264;24.536;2023-04-16T04:00:18;98875.63;;;7.61;100.00
39793;BME280;26080;42.264;24.536;2023-04-16T04:02:44;98879.88;;;7.63;100.00
39793;BME280;26080;42.264;24.536;2023-04-16T04:05:09;98874.66;;;7.63;100.00
39793;BME280;26080;42.264;24.536;2023-04-16T04:07:35;98888.09;;;7.75;100.00
39793;BME280;26080;42.264;24.536;2023-04-16T04:10:00;98878.63;;;7.72;100.00
39793;BME280;26080;42.264;24.536;2023-04-16T04:12:25;98884.63;;;7.74;100.00
39793;BME280;26080;42.264;24.536;2023-04-16T04:14:51;98885.19;;;7.81;100.00
39793;BME280;26080;42.264;24.536;2023-04-16T04:17:17;98888.47;;;7.86;100.00
39793;BME280;26080;42.264;24.536;2023-04-16T04:19:42;98864.41;;;7.79;100.00
39793;BME280;26080;42.264;24.536;2023-04-16T04:22:08;98884.63;;;7.94;100.00
39793;BME280;26080;42.264;24.536;2023-04-16T04:24:33;98886.44;;;7.92;100.00
39793;BME280;26080;42.264;24.536;2023-04-16T04:26:58;98897.41;;;8.00;100.00
39793;BME280;26080;42.264;24.536;2023-04-16T04:29:24;98901.25;;;8.12;100.00
39793;BME280;26080;42.264;24.536;2023-04-16T04:31:50;98899.19;;;8.19;100.00
39793;BME280;26080;42.264;24.536;2023-04-16T04:34:15;98900.56;;;8.27;100.00
39793;BME280;26080;42.264;24.536;2023-04-16T04:36:40;98894.38;;;8.50;100.00
39793;BME280;26080;42.264;24.536;2023-04-16T04:39:06;98890.91;;;8.69;100.00
39793;BME280;26080;42.264;24.536;2023-04-16T04:41:31;98894.72;;;8.80;100.00
39793;BME280;26080;42.264;24.536;2023-04-16T04:43:57;98887.94;;;8.95;100.00
39793;BME280;26080;42.264;24.536;2023-04-16T04:46:22;98891.81;;;9.05;100.00
39793;BME280;26080;42.264;24.536;2023-04-16T04:48:47;98896.56;;;9.14;100.00
39793;BME280;26080;42.264;24.536;2023-04-16T04:51:13;98860.13;;;8.94;100.00
39793;BME280;26080;42.264;24.536;2023-04-16T04:53:38;98898.09;;;9.37;100.00
39793;BME280;26080;42.264;24.536;2023-04-16T04:56:04;98880.06;;;9.31;100.00
39793;BME280;26080;42.264;24.536;2023-04-16T04:58:29;98896.25;;;9.57;100.00
39793;BME280;26080;42.264;24.536;2023-04-16T05:00:55;98904.16;;;9.55;100.00
39793;BME280;26080;42.264;24.536;2023-04-16T05:03:20;98901.19;;;9.63;100.00
39793;BME280;26080;42.264;24.536;2023-04-16T05:05:46;98898.94;;;9.72;100.00
39793;BME280;26080;42.264;24.536;2023-04-16T05:08:11;98901.34;;;9.77;100.00
39793;BME280;26080;42.264;24.536;2023-04-16T05:10:37;98897.13;;;9.74;100.00
39793;BME280;26080;42.264;24.536;2023-04-16T05:13:02;98868.03;;;9.63;100.00
39793;BME280;26080;42.264;24.536;2023-04-16T05:15:28;98886.66;;;9.92;100.00
39793;BME280;26080;42.264;24.536;2023-04-16T05:17:53;98881.84;;;10.00;100.00
39793;BME280;26080;42.264;24.536;2023-04-16T05:20:21;98878.03;;;9.90;100.00
39793;BME280;26080;42.264;24.536;2023-04-16T05:22:48;98852.88;;;9.87;100.00
39793;BME280;26080;42.264;24.536;2023-04-16T05:25:13;98880.91;;;10.18;100.00
39793;BME280;26080;42.264;24.536;2023-04-16T05:27:39;98880.13;;;10.33;100.00
39793;BME280;26080;42.264;24.536;2023-04-16T05:30:05;98885.47;;;10.48;100.00
39793;BME280;26080;42.264;24.536;2023-04-16T05:32:30;98886.59;;;10.59;100.00
39793;BME280;26080;42.264;24.536;2023-04-16T05:34:56;98887.63;;;10.88;100.00
39793;BME280;26080;42.264;24.536;2023-04-16T05:37:21;98880.69;;;11.03;100.00
39793;BME280;26080;42.264;24.536;2023-04-16T05:39:47;98880.59;;;11.05;100.00
39793;BME280;26080;42.264;24.536;2023-04-16T05:42:12;98888.81;;;11.14;100.00
39793;BME280;26080;42.264;24.536;2023-04-16T05:44:39;98903.16;;;11.23;100.00
39793;BME280;26080;42.264;24.536;2023-04-16T05:47:04;98900.34;;;11.42;100.00
39793;BME280;26080;42.264;24.536;2023-04-16T05:49:31;98905.00;;;11.52;100.00
39793;BME280;26080;42.264;24.536;2023-04-16T05:51:56;98911.28;;;11.64;100.00
39793;BME280;26080;42.264;24.536;2023-04-16T05:54:22;98914.13;;;11.75;100.00
39793;BME280;26080;42.264;24.536;2023-04-16T05:56:48;98914.59;;;11.83;100.00
39793;BME280;26080;42.264;24.536;2023-04-16T05:59:13;98915.25;;;11.87;100.00
39793;BME280;26080;42.264;24.536;2023-04-16T06:01:39;98920.22;;;11.76;100.00
39793;BME280;26080;42.264;24.536;2023-04-16T06:04:05;98923.09;;;11.87;100.00
39793;BME280;26080;42.264;24.536;2023-04-16T06:06:30;98928.94;;;11.92;100.00
39793;BME280;26080;42.264;24.536;2023-04-16T06:08:56;98923.06;;;12.03;100.00
39793;BME280;26080;42.264;24.536;2023-04-16T06:11:21;98923.06;;;12.03;100.00
39793;BME280;26080;42.264;24.536;2023-04-16T06:13:47;98917.44;;;12.09;100.00
39793;BME280;26080;42.264;24.536;2023-04-16T06:16:12;98923.81;;;12.19;100.00
39793;BME280;26080;42.264;24.536;2023-04-16T06:18:38;98926.75;;;12.43;100.00
39793;BME280;26080;42.264;24.536;2023-04-16T06:21:03;98914.88;;;12.52;100.00
39793;BME280;26080;42.264;24.536;2023-04-16T06:23:29;98910.53;;;12.79;100.00
39793;BME280;26080;42.264;24.536;2023-04-16T06:25:54;98909.44;;;13.10;100.00
39793;BME280;26080;42.264;24.536;2023-04-16T06:28:20;98909.94;;;13.44;100.00
39793;BME280;26080;42.264;24.536;2023-04-16T06:30:48;98901.91;;;13.72;100.00
39793;BME280;26080;42.264;24.536;2023-04-16T06:33:14;98906.56;;;13.94;100.00
39793;BME280;26080;42.264;24.536;2023-04-16T06:35:39;98898.72;;;14.45;100.00
39793;BME280;26080;42.264;24.536;2023-04-16T06:38:05;98905.47;;;14.62;97.74
39793;BME280;26080;42.264;24.536;2023-04-16T06:40:30;98907.53;;;14.95;92.85
39793;BME280;26080;42.264;24.536;2023-04-16T06:42:56;98893.56;;;14.93;91.84
39793;BME280;26080;42.264;24.536;2023-04-16T06:45:21;98898.44;;;14.99;88.82
39793;BME280;26080;42.264;24.536;2023-04-16T06:47:47;98887.50;;;14.79;88.05
39793;BME280;26080;42.264;24.536;2023-04-16T06:50:12;98886.81;;;15.01;86.49
39793;BME280;26080;42.264;24.536;2023-04-16T06:52:37;98879.97;;;14.99;84.20
39793;BME280;26080;42.264;24.536;2023-04-16T06:55:03;98876.69;;;15.08;83.76
39793;BME280;26080;42.264;24.536;2023-04-16T06:57:29;98884.44;;;15.22;83.70
39793;BME280;26080;42.264;24.536;2023-04-16T06:59:54;98875.56;;;15.23;84.98
39793;BME280;26080;42.264;24.536;2023-04-16T07:02:20;98890.88;;;15.42;82.67
39793;BME280;26080;42.264;24.536;2023-04-16T07:04:45;98889.97;;;15.54;82.70
39793;BME280;26080;42.264;24.536;2023-04-16T07:07:11;98881.63;;;15.60;85.92
39793;BME280;26080;42.264;24.536;2023-04-16T07:09:36;98883.28;;;15.61;84.05
39793;BME280;26080;42.264;24.536;2023-04-16T07:12:02;98883.84;;;15.54;85.75
39793;BME280;26080;42.264;24.536;2023-04-16T07:14:27;98890.41;;;15.48;83.00
39793;BME280;26080;42.264;24.536;2023-04-16T07:16:53;98886.13;;;15.23;83.81
39793;BME280;26080;42.264;24.536;2023-04-16T07:19:18;98862.28;;;14.88;84.77
39793;BME280;26080;42.264;24.536;2023-04-16T07:21:43;98881.53;;;15.01;86.50
39793;BME280;26080;42.264;24.536;2023-04-16T07:24:10;98876.63;;;14.84;87.59
39793;BME280;26080;42.264;24.536;2023-04-16T07:26:36;98883.53;;;14.61;88.85
39793;BME280;26080;42.264;24.536;2023-04-16T07:29:03;98878.16;;;14.63;88.93
39793;BME280;26080;42.264;24.536;2023-04-16T07:31:28;98857.28;;;14.34;90.00
39793;BME280;26080;42.264;24.536;2023-04-16T07:33:54;98871.00;;;14.52;90.39
39793;BME280;26080;42.264;24.536;2023-04-16T07:36:19;98863.94;;;14.52;90.37
39793;BME280;26080;42.264;24.536;2023-04-16T07:38:45;98867.97;;;14.45;90.89
39793;BME280;26080;42.264;24.536;2023-04-16T07:41:10;98866.59;;;14.27;93.41
39793;BME280;26080;42.264;24.536;2023-04-16T07:43:36;98869.22;;;14.27;92.95
39793;BME280;26080;42.264;24.536;2023-04-16T07:46:02;98871.91;;;14.38;91.09
39793;BME280;26080;42.264;24.536;2023-04-16T07:48:27;98870.25;;;14.37;90.49
39793;BME280;26080;42.264;24.536;2023-04-16T07:50:53;98869.72;;;14.32;92.10
39793;BME280;26080;42.264;24.536;2023-04-16T07:53:18;98865.44;;;14.44;90.97
39793;BME280;26080;42.264;24.536;2023-04-16T07:55:44;98865.84;;;14.50;90.27
39793;BME280;26080;42.264;24.536;2023-04-16T07:58:09;98862.22;;;14.64;89.73
39793;BME280;26080;42.264;24.536;2023-04-16T08:00:35;98866.31;;;14.81;89.69
39793;BME280;26080;42.264;24.536;2023-04-16T08:03:00;98858.31;;;15.06;89.14
39793;BME280;26080;42.264;24.536;2023-04-16T08:05:26;98865.84;;;15.24;89.36
39793;BME280;26080;42.264;24.536;2023-04-16T08:07:51;98859.22;;;15.42;90.10
39793;BME280;26080;42.264;24.536;2023-04-16T08:10:17;98863.91;;;15.62;86.92
39793;BME280;26080;42.264;24.536;2023-04-16T08:12:42;98840.75;;;15.42;85.26
39793;BME280;26080;42.264;24.536;2023-04-16T08:15:08;98852.25;;;15.41;84.91
39793;BME280;26080;42.264;24.536;2023-04-16T08:17:33;98848.28;;;15.35;84.08
39793;BME280;26080;42.264;24.536;2023-04-16T08:19:59;98843.63;;;15.39;85.60
39793;BME280;26080;42.264;24.536;2023-04-16T08:22:26;98836.94;;;15.57;86.01
39793;BME280;26080;42.264;24.536;2023-04-16T08:24:52;98847.09;;;15.75;90.42
39793;BME280;26080;42.264;24.536;2023-04-16T08:27:17;98841.41;;;16.14;88.77
39793;BME280;26080;42.264;24.536;2023-04-16T08:29:43;98836.03;;;16.49;86.87
39793;BME280;26080;42.264;24.536;2023-04-16T08:32:08;98828.72;;;16.75;82.74
39793;BME280;26080;42.264;24.536;2023-04-16T08:34:37;98828.78;;;16.96;84.01
39793;BME280;26080;42.264;24.536;2023-04-16T08:37:03;98825.53;;;17.04;81.28
39793;BME280;26080;42.264;24.536;2023-04-16T08:39:28;98836.81;;;17.06;81.24
39793;BME280;26080;42.264;24.536;2023-04-16T08:41:54;98829.56;;;17.19;82.84
39793;BME280;26080;42.264;24.536;2023-04-16T08:44:31;98831.69;;;17.25;84.87
39793;BME280;26080;42.264;24.536;2023-04-16T08:46:56;98832.66;;;17.24;81.07
39793;BME280;26080;42.264;24.536;2023-04-16T08:49:24;98809.09;;;17.21;82.93
39793;BME280;26080;42.264;24.536;2023-04-16T08:51:54;98830.63;;;17.28;82.92
39793;BME280;26080;42.264;24.536;2023-04-16T08:54:47;98833.97;;;17.30;86.64
39793;BME280;26080;42.264;24.536;2023-04-16T08:57:18;98827.34;;;17.35;86.01
39793;BME280;26080;42.264;24.536;2023-04-16T08:59:47;98828.97;;;17.47;85.43
39793;BME280;26080;42.264;24.536;2023-04-16T09:02:13;98827.59;;;17.53;84.24
39793;BME280;26080;42.264;24.536;2023-04-16T09:04:40;98832.91;;;17.53;83.32
39793;BME280;26080;42.264;24.536;2023-04-16T09:07:07;98815.28;;;17.42;83.92
39793;BME280;26080;42.264;24.536;2023-04-16T09:09:33;98810.00;;;17.42;84.29
39793;BME280;26080;42.264;24.536;2023-04-16T09:11:59;98793.38;;;17.40;83.96
39793;BME280;26080;42.264;24.536;2023-04-16T09:14:25;98805.19;;;17.68;80.50
39793;BME280;26080;42.264;24.536;2023-04-16T09:16:52;98807.34;;;17.42;80.34
39793;BME280;26080;42.264;24.536;2023-04-16T09:19:18;98772.44;;;17.16;80.01
39793;BME280;26080;42.264;24.536;2023-04-16T09:21:45;98792.22;;;17.33;80.48
39793;BME280;26080;42.264;24.536;2023-04-16T09:24:11;98790.16;;;17.37;79.97
39793;BME280;26080;42.264;24.536;2023-04-16T09:26:36;98789.25;;;17.47;79.89
39793;BME280;26080;42.264;24.536;2023-04-16T09:29:03;98788.72;;;17.54;78.57
39793;BME280;26080;42.264;24.536;2023-04-16T09:31:28;98791.69;;;17.39;78.24
39793;BME280;26080;42.264;24.536;2023-04-16T09:34:02;98790.00;;;17.38;78.86
39793;BME280;26080;42.264;24.536;2023-04-16T09:36:28;98763.91;;;17.13;78.67
39793;BME280;26080;42.264;24.536;2023-04-16T09:38:54;98780.44;;;17.05;78.43
39793;BME280;26080;42.264;24.536;2023-04-16T09:41:31;98780.59;;;16.93;79.34
39793;BME280;26080;42.264;24.536;2023-04-16T09:44:01;98778.72;;;17.15;80.01
39793;BME280;26080;42.264;24.536;2023-04-16T09:46:33;98773.75;;;17.22;77.00
39793;BME280;26080;42.264;24.536;2023-04-16T09:49:15;98757.41;;;17.17;76.99
39793;BME280;26080;42.264;24.536;2023-04-16T09:51:45;98765.72;;;17.12;72.27
39793;BME280;26080;42.264;24.536;2023-04-16T09:54:12;98760.69;;;17.09;75.31
39793;BME280;26080;42.264;24.536;2023-04-16T09:56:43;98758.13;;;17.19;73.96
39793;BME280;26080;42.264;24.536;2023-04-16T09:59:22;98759.28;;;17.26;70.37
39793;BME280;26080;42.264;24.536;2023-04-16T10:01:49;98760.78;;;17.19;69.99
39793;BME280;26080;42.264;24.536;2023-04-16T10:04:15;98724.97;;;17.15;69.78
39793;BME280;26080;42.264;24.536;2023-04-16T10:06:41;98742.50;;;17.37;69.55
39793;BME280;26080;42.264;24.536;2023-04-16T10:09:07;98748.13;;;17.43;65.68
39793;BME280;26080;42.264;24.536;2023-04-16T10:11:33;98740.91;;;17.45;66.75
39793;BME280;26080;42.264;24.536;2023-04-16T10:13:59;98733.81;;;17.46;67.65
39793;BME280;26080;42.264;24.536;2023-04-16T10:16:25;98719.66;;;17.57;69.81
39793;BME280;26080;42.264;24.536;2023-04-16T10:18:52;98724.16;;;17.87;64.86
39793;BME280;26080;42.264;24.536;2023-04-16T10:21:17;98732.53;;;17.92;63.90
39793;BME280;26080;42.264;24.536;2023-04-16T10:23:43;98711.31;;;18.13;61.59
39793;BME280;26080;42.264;24.536;2023-04-16T10:26:09;98680.63;;;18.10;61.98
39793;BME280;26080;42.264;24.536;2023-04-16T10:28:34;98710.28;;;18.44;63.27
39793;BME280;26080;42.264;24.536;2023-04-16T10:31:02;98709.16;;;18.47;58.48
39793;BME280;26080;42.264;24.536;2023-04-16T10:33:30;98706.53;;;18.56;59.86
39793;BME280;26080;42.264;24.536;2023-04-16T10:36:10;98719.69;;;18.68;58.68
39793;BME280;26080;42.264;24.536;2023-04-16T10:38:44;98715.75;;;18.52;58.23
39793;BME280;26080;42.264;24.536;2023-04-16T10:41:09;98704.78;;;18.36;57.83
39793;BME280;26080;42.264;24.536;2023-04-16T10:43:41;98702.63;;;18.51;59.39
39793;BME280;26080;42.264;24.536;2023-04-16T10:46:31;98711.84;;;18.56;59.48
39793;BME280;26080;42.264;24.536;2023-04-16T10:49:12;98704.41;;;18.41;61.55
39793;BME280;26080;42.264;24.536;2023-04-16T10:51:38;98710.06;;;18.67;65.98
39793;BME280;26080;42.264;24.536;2023-04-16T10:54:19;98711.31;;;18.72;61.92
39793;BME280;26080;42.264;24.536;2023-04-16T10:56:45;98695.69;;;18.69;64.12
39793;BME280;26080;42.264;24.536;2023-04-16T10:59:11;98711.06;;;18.85;63.96
39793;BME280;26080;42.264;24.536;2023-04-16T11:01:45;98706.44;;;18.87;64.23
39793;BME280;26080;42.264;24.536;2023-04-16T11:09:54;98711.88;;;19.14;64.18
39793;BME280;26080;42.264;24.536;2023-04-16T11:12:36;98698.22;;;19.19;66.22
39793;BME280;26080;42.264;24.536;2023-04-16T11:15:09;98691.97;;;19.67;62.62
39793;BME280;26080;42.264;24.536;2023-04-16T11:20:13;98679.41;;;20.24;61.86
39793;BME280;26080;42.264;24.536;2023-04-16T11:22:39;98686.50;;;19.78;62.85
39793;BME280;26080;42.264;24.536;2023-04-16T11:25:06;98671.41;;;19.69;64.38
39793;BME280;26080;42.264;24.536;2023-04-16T11:27:31;98682.63;;;19.63;63.88
39793;BME280;26080;42.264;24.536;2023-04-16T11:30:01;98680.22;;;19.69;65.48
39793;BME280;26080;42.264;24.536;2023-04-16T11:32:31;98669.13;;;19.83;68.63
39793;BME280;26080;42.264;24.536;2023-04-16T11:34:57;98673.94;;;19.98;64.68
39793;BME280;26080;42.264;24.536;2023-04-16T11:37:36;98666.66;;;20.00;67.83
39793;BME280;26080;42.264;24.536;2023-04-16T11:40:03;98649.16;;;19.79;67.79
39793;BME280;26080;42.264;24.536;2023-04-16T11:42:31;98672.06;;;19.80;66.07
39793;BME280;26080;42.264;24.536;2023-04-16T11:44:58;98661.75;;;19.77;66.48
39793;BME280;26080;42.264;24.536;2023-04-16T11:47:28;98658.31;;;19.95;66.87
39793;BME280;26080;42.264;24.536;2023-04-16T11:49:54;98633.69;;;20.20;66.99
39793;BME280;26080;42.264;24.536;2023-04-16T11:52:30;98657.25;;;20.43;63.41
39793;BME280;26080;42.264;24.536;2023-04-16T11:54:57;98647.69;;;20.40;65.85
39793;BME280;26080;42.264;24.536;2023-04-16T11:57:29;98642.94;;;20.44;64.88
39793;BME280;26080;42.264;24.536;2023-04-16T11:59:56;98643.69;;;20.54;66.78
39793;BME280;26080;42.264;24.536;2023-04-16T12:02:44;98639.59;;;20.77;66.01
39793;BME280;26080;42.264;24.536;2023-04-16T12:05:48;98638.22;;;20.55;66.93
39793;BME280;26080;42.264;24.536;2023-04-16T12:08:27;98628.50;;;20.64;67.56
39793;BME280;26080;42.264;24.536;2023-04-16T12:10:54;98596.81;;;20.53;68.41
39793;BME280;26080;42.264;24.536;2023-04-16T12:13:20;98620.50;;;20.82;67.45
39793;BME280;26080;42.264;24.536;2023-04-16T12:15:47;98613.34;;;20.82;66.18
39793;BME280;26080;42.264;24.536;2023-04-16T12:18:14;98614.06;;;20.84;68.98
39793;BME280;26080;42.264;24.536;2023-04-16T12:20:43;98606.22;;;21.09;69.38
39793;BME280;26080;42.264;24.536;2023-04-16T12:23:10;98583.75;;;21.03;67.23
39793;BME280;26080;42.264;24.536;2023-04-16T12:25:46;98594.63;;;21.36;71.18
39793;BME280;26080;42.264;24.536;2023-04-16T12:28:32;98591.41;;;21.58;71.81
39793;BME280;26080;42.264;24.536;2023-04-16T12:30:58;98574.59;;;21.57;68.32
39793;BME280;26080;42.264;24.536;2023-04-16T12:33:23;98590.34;;;21.43;68.35
39793;BME280;26080;42.264;24.536;2023-04-16T12:35:49;98567.50;;;20.88;68.17
39793;BME280;26080;42.264;24.536;2023-04-16T12:38:15;98552.09;;;20.74;69.32
39793;BME280;26080;42.264;24.536;2023-04-16T12:40:41;98557.97;;;21.04;71.62
39793;BME280;26080;42.264;24.536;2023-04-16T12:43:06;98571.94;;;21.06;70.39
39793;BME280;26080;42.264;24.536;2023-04-16T12:45:33;98567.34;;;21.16;69.91
39793;BME280;26080;42.264;24.536;2023-04-16T12:47:59;98564.47;;;21.27;67.62
39793;BME280;26080;42.264;24.536;2023-04-16T12:50:24;98561.56;;;21.46;66.49
39793;BME280;26080;42.264;24.536;2023-04-16T12:52:50;98554.22;;;21.40;66.89
39793;BME280;26080;42.264;24.536;2023-04-16T12:55:15;98552.56;;;21.47;67.20